createdAt,value
2016-11-19T00:00:41.574Z,934.92
2016-11-19T00:01:52.103Z,934.92
2016-11-19T00:03:02.728Z,934.91
2016-11-19T00:04:13.278Z,934.85
2016-11-19T00:05:23.802Z,934.87
2016-11-19T00:06:34.328Z,934.88
2016-11-19T00:07:44.853Z,934.84
2016-11-19T00:08:55.376Z,934.89
2016-11-19T00:10:05.902Z,934.95
2016-11-19T00:11:16.427Z,934.97
2016-11-19T00:12:26.955Z,934.92
2016-11-19T00:13:37.482Z,934.94
2016-11-19T00:14:48.209Z,934.97
2016-11-19T00:15:58.739Z,934.96
2016-11-19T00:17:09.266Z,935.01
2016-11-19T00:18:19.792Z,935.01
2016-11-19T00:20:55.364Z,935.04
2016-11-19T00:22:05.891Z,935.06
2016-11-19T00:23:16.416Z,935.08
2016-11-19T00:24:26.940Z,935.12
2016-11-19T00:25:37.664Z,935.11
2016-11-19T00:27:02.716Z,935.08
2016-11-19T00:28:13.242Z,935.09
2016-11-19T00:29:23.769Z,935.09
2016-11-19T00:30:34.366Z,935.13
2016-11-19T00:31:44.896Z,935.1
2016-11-19T00:33:10.442Z,935.05
2016-11-19T00:34:20.967Z,935.1
2016-11-19T00:35:31.492Z,935.06
2016-11-19T00:36:42.219Z,935.08
2016-11-19T00:39:17.795Z,935.08
2016-11-19T00:40:28.321Z,935.07
2016-11-19T00:41:39.051Z,935.01
2016-11-19T00:42:49.578Z,935.09
2016-11-19T00:44:00.103Z,935.04
2016-11-19T00:45:10.629Z,935.1
2016-11-19T00:46:21.176Z,935.1
2016-11-19T00:47:31.700Z,935.15
2016-11-19T00:48:42.223Z,935.13
2016-11-19T00:49:52.749Z,935.09
2016-11-19T00:51:03.272Z,935.04
2016-11-19T00:52:13.830Z,935.01
2016-11-19T00:53:24.357Z,935.01
2016-11-19T00:54:34.881Z,935.04
2016-11-19T00:55:45.414Z,934.98
2016-11-19T00:56:55.937Z,935.03
2016-11-19T00:58:06.461Z,934.99
2016-11-19T00:59:17.019Z,935.08
2016-11-19T01:00:27.543Z,935.06
2016-11-19T01:01:38.102Z,935.1
2016-11-19T01:02:48.659Z,935.12
2016-11-19T01:03:59.184Z,935.18
2016-11-19T01:05:24.336Z,935.11
2016-11-19T01:06:34.861Z,935.01
2016-11-19T01:07:45.391Z,935.03
2016-11-19T01:08:55.916Z,935.05
2016-11-19T01:10:06.643Z,935.01
2016-11-19T01:11:17.166Z,935.02
2016-11-19T01:12:27.689Z,935.04
2016-11-19T01:13:38.214Z,935.05
2016-11-19T01:14:48.741Z,935.06
2016-11-19T01:15:59.365Z,935.02
2016-11-19T01:17:09.896Z,935.04
2016-11-19T01:18:20.418Z,934.95
2016-11-19T01:19:30.927Z,935
2016-11-19T01:20:41.364Z,935.01
2016-11-19T01:21:51.998Z,935.03
2016-11-19T01:23:02.439Z,935.03
2016-11-19T01:24:12.877Z,934.99
2016-11-19T01:25:23.311Z,935
2016-11-19T01:26:33.743Z,935.01
2016-11-19T01:27:44.379Z,935.02
2016-11-19T01:28:54.817Z,935.09
2016-11-19T01:30:05.248Z,935.06
2016-11-19T01:31:15.681Z,935.01
2016-11-19T01:32:26.116Z,935.01
2016-11-19T01:33:36.552Z,934.95
2016-11-19T01:34:46.984Z,934.89
2016-11-19T01:35:57.445Z,934.88
2016-11-19T01:37:07.885Z,934.88
2016-11-19T01:38:18.330Z,934.89
2016-11-19T01:39:28.961Z,934.92
2016-11-19T01:40:39.400Z,934.86
2016-11-19T01:41:49.835Z,934.84
2016-11-19T01:43:00.269Z,934.84
2016-11-19T01:44:10.701Z,934.9
2016-11-19T01:45:21.138Z,934.91
2016-11-19T01:46:31.568Z,934.87
2016-11-19T01:47:42.006Z,934.91
2016-11-19T01:49:06.987Z,934.84
2016-11-19T01:50:17.425Z,934.87
2016-11-19T01:51:28.057Z,934.88
2016-11-19T01:52:38.491Z,934.86
2016-11-19T01:53:48.935Z,934.79
2016-11-19T01:54:59.368Z,934.77
2016-11-19T01:56:10.013Z,934.79
2016-11-19T01:57:20.935Z,934.81
2016-11-19T01:58:31.370Z,934.83
2016-11-19T01:59:41.804Z,934.8
2016-11-19T02:00:52.238Z,934.71
2016-11-19T02:02:02.874Z,934.76
2016-11-19T02:03:13.306Z,934.83
2016-11-19T02:04:23.759Z,934.81
2016-11-19T02:05:34.283Z,934.72
2016-11-19T02:06:44.810Z,934.76
2016-11-19T02:07:55.536Z,934.69
2016-11-19T02:09:06.062Z,934.69
2016-11-19T02:10:16.585Z,934.71
2016-11-19T02:11:41.633Z,934.71
2016-11-19T02:12:52.160Z,934.68
2016-11-19T02:14:02.914Z,934.67
2016-11-19T02:15:13.947Z,934.7
2016-11-19T02:16:24.472Z,934.72
2016-11-19T02:17:34.997Z,934.63
2016-11-19T02:18:45.720Z,934.51
2016-11-19T02:19:56.243Z,934.62
2016-11-19T02:21:21.296Z,934.51
2016-11-19T02:22:31.823Z,934.51
2016-11-19T02:23:42.414Z,934.52
2016-11-19T02:24:53.141Z,934.53
2016-11-19T02:26:03.665Z,934.5
2016-11-19T02:27:14.189Z,934.46
2016-11-19T02:28:24.710Z,934.45
2016-11-19T02:29:35.192Z,934.41
2016-11-19T02:30:45.637Z,934.41
2016-11-19T02:31:56.085Z,934.43
2016-11-19T02:33:06.533Z,934.41
2016-11-19T02:34:16.980Z,934.4
2016-11-19T02:35:27.438Z,934.39
2016-11-19T02:36:37.884Z,934.39
2016-11-19T02:37:48.330Z,934.42
2016-11-19T02:38:58.782Z,934.41
2016-11-19T02:40:09.227Z,934.37
2016-11-19T02:41:34.215Z,934.34
2016-11-19T02:42:44.662Z,934.36
2016-11-19T02:43:55.116Z,934.38
2016-11-19T02:45:20.101Z,934.39
2016-11-19T02:46:30.546Z,934.39
2016-11-19T02:47:40.876Z,934.42
2016-11-19T02:48:51.680Z,934.39
2016-11-19T02:50:02.006Z,934.4
2016-11-19T02:51:12.335Z,934.4
2016-11-19T02:52:22.661Z,934.34
2016-11-19T02:53:32.986Z,934.31
2016-11-19T02:54:43.310Z,934.32
2016-11-19T02:55:53.642Z,934.25
2016-11-19T02:57:03.972Z,934.29
2016-11-19T02:58:14.502Z,934.21
2016-11-19T02:59:24.832Z,934.21
2016-11-19T03:00:35.157Z,934.17
2016-11-19T03:01:45.483Z,934.2
2016-11-19T03:02:55.814Z,934.18
2016-11-19T03:04:06.143Z,934.22
2016-11-19T03:05:16.467Z,934.15
2016-11-19T03:06:41.356Z,934.17
2016-11-19T03:07:51.684Z,934.15
2016-11-19T03:09:02.008Z,934.15
2016-11-19T03:10:12.334Z,934.11
2016-11-19T03:11:37.215Z,934.1
2016-11-19T03:12:47.531Z,934.13
2016-11-19T03:13:57.844Z,934.17
2016-11-19T03:15:08.360Z,934.19
2016-11-19T03:16:18.674Z,934.18
2016-11-19T03:17:28.995Z,934.18
2016-11-19T03:18:39.786Z,934.21
2016-11-19T03:19:50.337Z,934.2
2016-11-19T03:21:00.650Z,934.1
2016-11-19T03:22:10.961Z,934.05
2016-11-19T03:23:50.412Z,933.97
2016-11-19T03:25:00.728Z,933.89
2016-11-19T03:26:11.046Z,933.88
2016-11-19T03:27:35.928Z,933.96
2016-11-19T03:28:46.242Z,933.87
2016-11-19T03:29:56.586Z,933.8
2016-11-19T03:31:07.105Z,933.78
2016-11-19T03:32:17.438Z,933.67
2016-11-19T03:33:27.750Z,933.7
2016-11-19T03:34:38.064Z,933.7
2016-11-19T03:35:48.578Z,933.78
2016-11-19T03:36:58.897Z,933.79
2016-11-19T03:38:09.212Z,933.77
2016-11-19T03:39:19.526Z,933.8
2016-11-19T03:40:29.842Z,933.71
2016-11-19T03:41:40.158Z,933.69
2016-11-19T03:42:50.475Z,933.6
2016-11-19T03:44:00.788Z,933.63
2016-11-19T03:45:11.099Z,933.6
2016-11-19T03:46:21.413Z,933.62
2016-11-19T03:47:31.924Z,933.58
2016-11-19T03:48:42.235Z,933.55
2016-11-19T03:49:52.550Z,933.57
2016-11-19T03:51:02.863Z,933.52
2016-11-19T03:52:13.178Z,933.57
2016-11-19T03:53:23.695Z,933.57
2016-11-19T03:54:34.014Z,933.54
2016-11-19T03:57:09.227Z,933.57
2016-11-19T03:58:19.552Z,933.53
2016-11-19T03:59:30.080Z,933.51
2016-11-19T04:00:40.410Z,933.45
2016-11-19T04:01:50.738Z,933.41
2016-11-19T04:03:01.065Z,933.42
2016-11-19T04:04:11.389Z,933.36
2016-11-19T04:05:21.716Z,933.31
2016-11-19T04:06:32.040Z,933.25
2016-11-19T04:07:42.379Z,933.28
2016-11-19T04:08:52.712Z,933.28
2016-11-19T04:10:03.290Z,933.35
2016-11-19T04:11:13.618Z,933.38
2016-11-19T04:12:23.937Z,933.33
2016-11-19T04:13:34.261Z,933.36
2016-11-19T04:14:44.588Z,933.42
2016-11-19T04:15:55.396Z,933.48
2016-11-19T04:17:05.721Z,933.42
2016-11-19T04:18:16.047Z,933.33
2016-11-19T04:19:26.374Z,933.35
2016-11-19T04:20:36.698Z,933.26
2016-11-19T04:21:47.222Z,933.24
2016-11-19T04:22:57.546Z,933.26
2016-11-19T04:24:07.869Z,933.24
2016-11-19T04:25:18.193Z,933.23
2016-11-19T04:26:28.550Z,933.2
2016-11-19T04:27:39.074Z,933.17
2016-11-19T04:28:49.399Z,933.17
2016-11-19T04:29:59.723Z,933.21
2016-11-19T04:31:10.049Z,933.2
2016-11-19T04:32:20.374Z,933.21
2016-11-19T04:33:30.898Z,933.2
2016-11-19T04:34:41.223Z,933.21
2016-11-19T04:35:51.550Z,933.1
2016-11-19T04:37:01.875Z,933.05
2016-11-19T04:38:12.204Z,932.98
2016-11-19T04:39:22.726Z,933.02
2016-11-19T04:40:33.054Z,933.01
2016-11-19T04:41:43.366Z,933.03
2016-11-19T04:42:53.682Z,933.05
2016-11-19T04:44:03.996Z,933.12
2016-11-19T04:45:29.077Z,933.13
2016-11-19T04:46:39.393Z,933.11
2016-11-19T04:47:49.710Z,933.08
2016-11-19T04:49:00.025Z,933.01
2016-11-19T04:50:10.373Z,933.01
2016-11-19T04:51:20.687Z,933.02
2016-11-19T04:52:30.998Z,932.97
2016-11-19T04:53:41.318Z,932.95
2016-11-19T04:54:51.637Z,932.96
2016-11-19T04:56:01.951Z,932.94
2016-11-19T04:57:12.266Z,932.9
2016-11-19T04:58:22.584Z,932.93
2016-11-19T04:59:32.894Z,932.92
2016-11-19T05:00:43.236Z,932.87
2016-11-19T05:01:53.558Z,932.84
2016-11-19T05:03:04.070Z,932.84
2016-11-19T05:04:14.383Z,932.79
2016-11-19T05:05:24.706Z,932.77
2016-11-19T05:06:35.019Z,932.79
2016-11-19T05:07:45.332Z,932.79
2016-11-19T05:08:55.845Z,932.82
2016-11-19T05:10:06.158Z,932.79
2016-11-19T05:11:16.472Z,932.73
2016-11-19T05:12:26.787Z,932.72
2016-11-19T05:13:37.129Z,932.67
2016-11-19T05:14:47.649Z,932.64
2016-11-19T05:15:57.963Z,932.63
2016-11-19T05:17:08.275Z,932.54
2016-11-19T05:18:18.593Z,932.64
2016-11-19T05:19:28.907Z,932.65
2016-11-19T05:20:39.227Z,932.59
2016-11-19T05:21:49.541Z,932.62
2016-11-19T05:22:59.854Z,932.58
2016-11-19T05:24:10.175Z,932.56
2016-11-19T05:25:20.490Z,932.65
2016-11-19T05:26:31.003Z,932.62
2016-11-19T05:27:41.314Z,932.67
2016-11-19T05:28:51.630Z,932.65
2016-11-19T05:30:01.945Z,932.62
2016-11-19T05:31:12.264Z,932.61
2016-11-19T05:32:22.785Z,932.61
2016-11-19T05:33:33.140Z,932.62
2016-11-19T05:34:43.452Z,932.68
2016-11-19T05:35:53.765Z,932.72
2016-11-19T05:37:04.077Z,932.68
2016-11-19T05:38:28.955Z,932.73
2016-11-19T05:39:39.268Z,932.75
2016-11-19T05:40:49.586Z,932.67
2016-11-19T05:41:59.904Z,932.6
2016-11-19T05:43:10.416Z,932.56
2016-11-19T05:44:20.730Z,932.53
2016-11-19T05:45:31.045Z,932.71
2016-11-19T05:46:41.381Z,932.62
2016-11-19T05:47:51.701Z,932.6
2016-11-19T05:49:02.671Z,932.63
2016-11-19T05:50:13.357Z,932.62
2016-11-19T05:51:23.669Z,932.68
2016-11-19T05:52:33.989Z,932.69
2016-11-19T05:53:44.310Z,932.71
2016-11-19T05:54:54.724Z,932.76
2016-11-19T05:56:19.602Z,932.74
2016-11-19T05:57:29.913Z,932.81
2016-11-19T05:58:54.791Z,932.85
2016-11-19T06:00:05.303Z,932.85
2016-11-19T06:01:15.618Z,932.82
2016-11-19T06:02:25.972Z,932.88
2016-11-19T06:03:36.291Z,932.86
2016-11-19T06:04:46.608Z,932.86
2016-11-19T06:05:57.027Z,932.85
2016-11-19T06:07:07.366Z,932.84
2016-11-19T06:08:18.152Z,932.87
2016-11-19T06:09:28.468Z,932.93
2016-11-19T06:10:38.783Z,932.92
2016-11-19T06:11:49.097Z,932.86
2016-11-19T06:12:59.438Z,932.87
2016-11-19T06:14:09.872Z,932.84
2016-11-19T06:15:20.304Z,932.81
2016-11-19T06:16:30.738Z,932.84
2016-11-19T06:17:41.366Z,932.83
2016-11-19T06:18:51.797Z,932.84
2016-11-19T06:20:02.230Z,932.85
2016-11-19T06:21:12.688Z,932.83
2016-11-19T06:22:23.122Z,932.75
2016-11-19T06:23:33.692Z,932.77
2016-11-19T06:24:44.123Z,932.75
2016-11-19T06:25:54.556Z,932.74
2016-11-19T06:27:19.565Z,932.77
2016-11-19T06:28:29.997Z,932.83
2016-11-19T06:29:40.430Z,932.89
2016-11-19T06:30:50.865Z,932.89
2016-11-19T06:32:01.299Z,932.87
2016-11-19T06:33:11.733Z,932.9
2016-11-19T06:34:22.308Z,933
2016-11-19T06:35:32.832Z,932.94
2016-11-19T06:36:43.355Z,932.97
2016-11-19T06:38:08.403Z,932.96
2016-11-19T06:39:18.933Z,932.99
2016-11-19T06:40:29.456Z,932.99
2016-11-19T06:41:39.978Z,932.99
2016-11-19T06:42:50.501Z,933
2016-11-19T06:44:01.023Z,933.05
2016-11-19T06:45:11.548Z,933
2016-11-19T06:46:36.597Z,933.03
2016-11-19T06:47:47.124Z,933.04
2016-11-19T06:48:57.680Z,933.05
2016-11-19T06:50:08.707Z,932.99
2016-11-19T06:51:19.338Z,932.95
2016-11-19T06:52:29.864Z,932.95
2016-11-19T06:53:40.388Z,932.97
2016-11-19T06:54:50.910Z,932.97
2016-11-19T06:56:01.534Z,933.03
2016-11-19T06:57:12.060Z,933.01
2016-11-19T06:58:22.583Z,932.98
2016-11-19T06:59:33.105Z,932.92
2016-11-19T07:00:43.631Z,932.9
2016-11-19T07:01:54.260Z,932.9
2016-11-19T07:03:04.788Z,932.92
2016-11-19T07:04:15.351Z,932.93
2016-11-19T07:05:25.882Z,932.99
2016-11-19T07:06:36.406Z,933.01
2016-11-19T07:07:47.056Z,932.96
2016-11-19T07:08:57.609Z,932.95
2016-11-19T07:10:08.134Z,932.97
2016-11-19T07:11:18.660Z,933.02
2016-11-19T07:12:29.183Z,933.02
2016-11-19T07:13:39.706Z,933.03
2016-11-19T07:14:50.230Z,933.03
2016-11-19T07:16:00.755Z,933.07
2016-11-19T07:17:11.276Z,933.01
2016-11-19T07:18:21.802Z,933
2016-11-19T07:19:32.307Z,932.94
2016-11-19T07:20:42.743Z,932.92
2016-11-19T07:21:53.172Z,932.92
2016-11-19T07:23:03.615Z,932.93
2016-11-19T07:24:14.050Z,932.97
2016-11-19T07:25:24.486Z,932.94
2016-11-19T07:26:34.926Z,932.91
2016-11-19T07:29:24.871Z,932.79
2016-11-19T07:30:35.299Z,932.8
2016-11-19T07:31:45.735Z,932.79
2016-11-19T07:32:56.168Z,932.78
2016-11-19T07:34:07.092Z,932.78
2016-11-19T07:35:17.523Z,932.78
2016-11-19T07:36:27.954Z,932.8
2016-11-19T07:37:38.389Z,932.85
2016-11-19T07:38:48.824Z,932.9
2016-11-19T07:39:59.257Z,932.96
2016-11-19T07:41:09.691Z,932.99
2016-11-19T07:42:20.225Z,933.05
2016-11-19T07:43:30.687Z,933.08
2016-11-19T07:44:41.121Z,933.08
2016-11-19T07:45:51.551Z,933.13
2016-11-19T07:47:01.985Z,933.11
2016-11-19T07:48:12.520Z,933.15
2016-11-19T07:49:22.953Z,933.16
2016-11-19T07:50:33.385Z,933.12
2016-11-19T07:51:43.818Z,933.15
2016-11-19T07:52:54.258Z,933.06
2016-11-19T07:54:04.795Z,933.05
2016-11-19T07:55:15.227Z,933.09
2016-11-19T07:56:25.658Z,933.09
2016-11-19T07:57:36.089Z,933.18
2016-11-19T07:58:46.519Z,933.18
2016-11-19T08:01:21.924Z,933.18
2016-11-19T08:02:32.358Z,933.17
2016-11-19T08:03:42.790Z,933.15
2016-11-19T08:04:53.251Z,933.12
2016-11-19T08:06:03.975Z,933.14
2016-11-19T08:07:14.507Z,933.14
2016-11-19T08:08:25.033Z,933.13
2016-11-19T08:09:35.588Z,933.12
2016-11-19T08:10:46.118Z,933.13
2016-11-19T08:11:56.645Z,933.13
2016-11-19T08:13:07.173Z,933.19
2016-11-19T08:14:17.694Z,933.2
2016-11-19T08:15:28.222Z,933.26
2016-11-19T08:16:38.945Z,933.17
2016-11-19T08:17:49.466Z,933.19
2016-11-19T08:18:59.990Z,933.26
2016-11-19T08:20:10.514Z,933.33
2016-11-19T08:21:21.047Z,933.42
2016-11-19T08:22:31.569Z,933.42
2016-11-19T08:23:42.592Z,933.47
2016-11-19T08:24:53.116Z,933.5
2016-11-19T08:26:03.675Z,933.49
2016-11-19T08:27:14.205Z,933.47
2016-11-19T08:28:24.735Z,933.39
2016-11-19T08:29:35.260Z,933.39
2016-11-19T08:30:45.784Z,933.42
2016-11-19T08:31:56.309Z,933.39
2016-11-19T08:33:21.357Z,933.4
2016-11-19T08:34:31.883Z,933.42
2016-11-19T08:35:42.411Z,933.38
2016-11-19T08:36:52.935Z,933.42
2016-11-19T08:38:03.497Z,933.42
2016-11-19T08:39:14.121Z,933.46
2016-11-19T08:40:24.653Z,933.43
2016-11-19T08:41:35.177Z,933.36
2016-11-19T08:42:45.706Z,933.41
2016-11-19T08:43:56.266Z,933.45
2016-11-19T08:45:06.892Z,933.42
2016-11-19T08:46:17.419Z,933.43
2016-11-19T08:47:27.948Z,933.47
2016-11-19T08:48:38.471Z,933.5
2016-11-19T08:49:48.999Z,933.49
2016-11-19T08:50:59.723Z,933.55
2016-11-19T08:52:10.249Z,933.56
2016-11-19T08:53:20.777Z,933.61
2016-11-19T08:54:31.303Z,933.57
2016-11-19T08:55:56.354Z,933.62
2016-11-19T08:57:06.880Z,933.59
2016-11-19T08:58:31.929Z,933.55
2016-11-19T08:59:42.454Z,933.56
2016-11-19T09:00:52.977Z,933.53
2016-11-19T09:02:03.707Z,933.47
2016-11-19T09:03:14.239Z,933.44
2016-11-19T09:04:24.793Z,933.51
2016-11-19T09:05:49.849Z,933.55
2016-11-19T09:07:15.101Z,933.6
2016-11-19T09:08:25.626Z,933.61
2016-11-19T09:09:36.147Z,933.62
2016-11-19T09:10:46.672Z,933.66
2016-11-19T09:11:57.195Z,933.72
2016-11-19T09:13:07.759Z,933.71
2016-11-19T09:14:18.283Z,933.78
2016-11-19T09:15:28.842Z,933.72
2016-11-19T09:16:39.370Z,933.76
2016-11-19T09:18:04.517Z,933.79
2016-11-19T09:19:15.045Z,933.78
2016-11-19T09:20:25.567Z,933.79
2016-11-19T09:21:36.092Z,933.87
2016-11-19T09:22:46.721Z,933.9
2016-11-19T09:23:57.743Z,933.89
2016-11-19T09:25:08.271Z,933.93
2016-11-19T09:26:18.795Z,933.96
2016-11-19T09:27:29.349Z,934.02
2016-11-19T09:28:40.073Z,934.04
2016-11-19T09:29:50.597Z,934.05
2016-11-19T09:31:01.128Z,934.02
2016-11-19T09:32:11.682Z,934.03
2016-11-19T09:33:22.210Z,934.04
2016-11-19T09:34:33.326Z,934.06
2016-11-19T09:35:43.849Z,934.09
2016-11-19T09:36:54.369Z,934.11
2016-11-19T09:38:04.901Z,934.1
2016-11-19T09:39:15.422Z,934.11
2016-11-19T09:40:26.147Z,934.13
2016-11-19T09:41:36.671Z,934.13
2016-11-19T09:42:47.195Z,934.15
2016-11-19T09:43:57.716Z,934.23
2016-11-19T09:45:08.238Z,934.17
2016-11-19T09:46:18.762Z,934.17
2016-11-19T09:47:29.288Z,934.2
2016-11-19T09:48:39.811Z,934.26
2016-11-19T09:49:50.333Z,934.25
2016-11-19T09:51:00.854Z,934.3
2016-11-19T09:52:11.377Z,934.31
2016-11-19T09:53:21.902Z,934.35
2016-11-19T09:54:32.422Z,934.4
2016-11-19T09:55:42.947Z,934.43
2016-11-19T09:56:53.474Z,934.44
2016-11-19T09:58:04.001Z,934.52
2016-11-19T09:59:14.522Z,934.45
2016-11-19T10:00:25.047Z,934.48
2016-11-19T10:01:35.577Z,934.51
2016-11-19T10:02:46.102Z,934.48
2016-11-19T10:03:56.655Z,934.53
2016-11-19T10:05:07.182Z,934.55
2016-11-19T10:06:17.728Z,934.5
2016-11-19T10:07:28.250Z,934.53
2016-11-19T10:08:38.771Z,934.5
2016-11-19T10:09:49.393Z,934.53
2016-11-19T10:10:59.915Z,934.53
2016-11-19T10:12:10.438Z,934.61
2016-11-19T10:13:20.964Z,934.62
2016-11-19T10:14:31.488Z,934.67
2016-11-19T10:15:42.208Z,934.75
2016-11-19T10:17:07.255Z,934.77
2016-11-19T10:18:17.782Z,934.7
2016-11-19T10:19:28.286Z,934.8
2016-11-19T10:20:38.716Z,934.8
2016-11-19T10:21:49.148Z,934.72
2016-11-19T10:22:59.577Z,934.76
2016-11-19T10:24:10.009Z,934.87
2016-11-19T10:25:20.439Z,934.78
2016-11-19T10:26:30.872Z,934.89
2016-11-19T10:27:41.315Z,934.78
2016-11-19T10:28:51.745Z,934.75
2016-11-19T10:30:16.718Z,934.78
2016-11-19T10:31:27.151Z,934.75
2016-11-19T10:32:37.678Z,934.74
2016-11-19T10:33:48.105Z,934.84
2016-11-19T10:35:13.078Z,934.84
2016-11-19T10:36:52.593Z,934.91
2016-11-19T10:38:03.024Z,934.94
2016-11-19T10:39:13.461Z,934.97
2016-11-19T10:40:23.891Z,934.93
2016-11-19T10:41:34.318Z,934.89
2016-11-19T10:42:44.751Z,934.89
2016-11-19T10:43:55.187Z,934.93
2016-11-19T10:45:05.619Z,934.95
2016-11-19T10:46:16.058Z,934.9
2016-11-19T10:47:26.519Z,934.89
2016-11-19T10:48:36.951Z,934.91
2016-11-19T10:49:47.383Z,934.97
2016-11-19T10:50:57.812Z,935
2016-11-19T10:52:08.243Z,935
2016-11-19T10:53:18.675Z,934.99
2016-11-19T10:54:29.605Z,934.95
2016-11-19T10:55:40.046Z,934.92
2016-11-19T10:56:50.475Z,934.91
2016-11-19T10:58:00.908Z,934.9
2016-11-19T10:59:25.882Z,934.82
2016-11-19T11:00:36.520Z,934.87
2016-11-19T11:01:46.954Z,934.85
2016-11-19T11:02:57.409Z,934.9
2016-11-19T11:04:07.841Z,934.95
2016-11-19T11:05:18.271Z,934.89
2016-11-19T11:06:28.731Z,934.88
2016-11-19T11:07:39.164Z,934.9
2016-11-19T11:08:49.598Z,934.88
2016-11-19T11:10:00.031Z,934.97
2016-11-19T11:11:10.565Z,934.99
2016-11-19T11:12:20.994Z,934.97
2016-11-19T11:13:31.427Z,934.95
2016-11-19T11:14:41.859Z,935.02
2016-11-19T11:15:52.293Z,935.12
2016-11-19T11:17:02.725Z,935.07
2016-11-19T11:18:13.157Z,935.05
2016-11-19T11:19:23.586Z,935.01
2016-11-19T11:20:34.016Z,935.06
2016-11-19T11:21:58.993Z,935.16
2016-11-19T11:23:09.631Z,935.15
2016-11-19T11:24:20.062Z,935.25
2016-11-19T11:25:30.493Z,935.21
2016-11-19T11:26:40.923Z,935.21
2016-11-19T11:27:51.356Z,935.18
2016-11-19T11:29:01.794Z,935.01
2016-11-19T11:30:12.227Z,935.19
2016-11-19T11:32:47.636Z,935.22
2016-11-19T11:33:58.289Z,935.28
2016-11-19T11:35:08.723Z,935.38
2016-11-19T11:36:19.159Z,935.22
2016-11-19T11:37:29.593Z,935.28
2016-11-19T11:40:04.997Z,935.35
2016-11-19T11:41:15.431Z,935.32
2016-11-19T11:42:25.860Z,935.35
2016-11-19T11:43:36.292Z,935.36
2016-11-19T11:44:46.947Z,935.31
2016-11-19T11:45:57.380Z,935.21
2016-11-19T11:47:07.809Z,935.29
2016-11-19T11:48:18.240Z,935.29
2016-11-19T11:49:28.672Z,935.31
2016-11-19T11:50:39.104Z,935.34
2016-11-19T11:51:49.566Z,935.41
2016-11-19T11:54:39.522Z,935.36
2016-11-19T11:55:49.964Z,935.43
2016-11-19T11:57:00.393Z,935.44
2016-11-19T11:58:10.853Z,935.38
2016-11-19T11:59:21.286Z,935.43
2016-11-19T12:00:31.715Z,935.4
2016-11-19T12:01:42.148Z,935.27
2016-11-19T12:02:53.077Z,935.33
2016-11-19T12:04:03.507Z,935.39
2016-11-19T12:05:13.941Z,935.35
2016-11-19T12:06:24.472Z,935.35
2016-11-19T12:07:34.904Z,935.32
2016-11-19T12:08:45.339Z,935.36
2016-11-19T12:09:55.772Z,935.26
2016-11-19T12:11:06.206Z,935.24
2016-11-19T12:12:16.642Z,935.23
2016-11-19T12:13:27.075Z,935.27
2016-11-19T12:14:37.504Z,935.37
2016-11-19T12:15:47.944Z,935.42
2016-11-19T12:16:58.383Z,935.41
2016-11-19T12:18:08.826Z,935.45
2016-11-19T12:19:19.285Z,935.53
2016-11-19T12:20:29.716Z,935.4
2016-11-19T12:21:40.151Z,935.35
2016-11-19T12:22:50.582Z,935.38
2016-11-19T12:24:01.017Z,935.5
2016-11-19T12:25:11.452Z,935.51
2016-11-19T12:26:21.891Z,935.5
2016-11-19T12:27:32.831Z,935.43
2016-11-19T12:28:43.264Z,935.4
2016-11-19T12:29:53.897Z,935.36
2016-11-19T12:32:29.309Z,935.3
2016-11-19T12:33:39.745Z,935.37
2016-11-19T12:34:50.201Z,935.26
2016-11-19T12:36:15.254Z,935.29
2016-11-19T12:37:25.788Z,935.31
2016-11-19T12:38:36.312Z,935.39
2016-11-19T12:39:46.867Z,935.43
2016-11-19T12:40:57.392Z,935.41
2016-11-19T12:42:07.921Z,935.41
2016-11-19T12:43:32.976Z,935.52
2016-11-19T12:44:43.501Z,935.46
2016-11-19T12:45:54.123Z,935.46
2016-11-19T12:47:04.671Z,935.49
2016-11-19T12:48:15.202Z,935.46
2016-11-19T12:49:25.731Z,935.51
2016-11-19T12:50:50.784Z,935.46
2016-11-19T12:52:01.311Z,935.51
2016-11-19T12:53:11.838Z,935.49
2016-11-19T12:54:22.400Z,935.48
2016-11-19T12:55:32.924Z,935.47
2016-11-19T12:56:43.453Z,935.48
2016-11-19T12:57:53.976Z,935.45
2016-11-19T12:59:04.502Z,935.46
2016-11-19T13:00:15.026Z,935.52
2016-11-19T13:01:25.551Z,935.44
2016-11-19T13:02:36.079Z,935.54
2016-11-19T13:03:46.602Z,935.58
2016-11-19T13:04:57.158Z,935.52
2016-11-19T13:06:07.687Z,935.52
2016-11-19T13:07:18.214Z,935.56
2016-11-19T13:08:28.772Z,935.6
2016-11-19T13:09:39.300Z,935.62
2016-11-19T13:10:50.334Z,935.76
2016-11-19T13:12:00.890Z,935.6
2016-11-19T13:13:11.310Z,935.62
2016-11-19T13:14:21.718Z,935.66
2016-11-19T13:15:32.133Z,935.64
2016-11-19T13:16:42.543Z,935.59
2016-11-19T13:17:52.953Z,935.45
2016-11-19T13:20:28.424Z,935.63
2016-11-19T13:21:38.830Z,935.66
2016-11-19T13:22:49.240Z,935.7
2016-11-19T13:23:59.652Z,935.72
2016-11-19T13:25:10.062Z,935.68
2016-11-19T13:26:20.470Z,935.54
2016-11-19T13:27:30.878Z,935.55
2016-11-19T13:28:41.283Z,935.59
2016-11-19T13:29:51.688Z,935.54
2016-11-19T13:31:02.195Z,935.5
2016-11-19T13:32:12.608Z,935.51
2016-11-19T13:33:23.018Z,935.52
2016-11-19T13:34:33.429Z,935.54
2016-11-19T13:35:44.326Z,935.65
2016-11-19T13:36:54.939Z,935.58
2016-11-19T13:38:05.350Z,935.53
2016-11-19T13:39:15.760Z,935.49
2016-11-19T13:40:26.175Z,935.53
2016-11-19T13:41:36.588Z,935.47
2016-11-19T13:42:47.200Z,935.49
2016-11-19T13:43:57.637Z,935.5
2016-11-19T13:45:08.048Z,935.42
2016-11-19T13:46:18.456Z,935.43
2016-11-19T13:47:28.874Z,935.46
2016-11-19T13:48:39.779Z,935.57
2016-11-19T13:49:50.220Z,935.58
2016-11-19T13:51:00.639Z,935.55
2016-11-19T13:52:11.530Z,935.51
2016-11-19T13:53:21.938Z,935.53
2016-11-19T13:54:32.350Z,935.48
2016-11-19T13:55:57.311Z,935.5
2016-11-19T13:57:07.724Z,935.46
2016-11-19T13:58:32.681Z,935.45
2016-11-19T13:59:43.090Z,935.51
2016-11-19T14:00:53.527Z,935.5
2016-11-19T14:02:18.484Z,935.48
2016-11-19T14:03:28.891Z,935.59
2016-11-19T14:04:39.298Z,935.56
2016-11-19T14:05:49.735Z,935.55
2016-11-19T14:07:00.142Z,935.56
2016-11-19T14:08:10.555Z,935.49
2016-11-19T14:09:20.977Z,935.55
2016-11-19T14:10:45.938Z,935.55
2016-11-19T14:11:56.347Z,935.61
2016-11-19T14:13:06.764Z,935.52
2016-11-19T14:14:17.173Z,935.44
2016-11-19T14:15:27.590Z,935.39
2016-11-19T14:16:37.999Z,935.35
2016-11-19T14:17:48.403Z,935.36
2016-11-19T14:18:58.811Z,935.34
2016-11-19T14:20:23.776Z,935.33
2016-11-19T14:21:34.183Z,935.33
2016-11-19T14:22:44.598Z,935.43
2016-11-19T14:23:55.498Z,935.48
2016-11-19T14:25:05.905Z,935.52
2016-11-19T14:26:16.413Z,935.47
2016-11-19T14:27:26.820Z,935.43
2016-11-19T14:28:37.233Z,935.41
2016-11-19T14:29:47.667Z,935.46
2016-11-19T14:32:23.237Z,935.38
2016-11-19T14:33:33.646Z,935.37
2016-11-19T14:34:44.052Z,935.43
2016-11-19T14:35:54.463Z,935.5
2016-11-19T14:37:04.972Z,935.43
2016-11-19T14:38:15.382Z,935.4
2016-11-19T14:39:25.813Z,935.47
2016-11-19T14:40:36.227Z,935.47
2016-11-19T14:41:46.633Z,935.47
2016-11-19T14:42:57.039Z,935.39
2016-11-19T14:44:07.454Z,935.36
2016-11-19T14:45:17.870Z,935.34
2016-11-19T14:46:42.837Z,935.45
2016-11-19T14:47:53.254Z,935.35
2016-11-19T14:49:03.692Z,935.33
2016-11-19T14:50:28.649Z,935.33
2016-11-19T14:51:39.577Z,935.21
2016-11-19T14:53:05.575Z,935.18
2016-11-19T14:54:16.476Z,935.05
2016-11-19T14:55:41.437Z,935.06
2016-11-19T14:56:51.843Z,935.04
2016-11-19T14:58:02.258Z,935.06
2016-11-19T14:59:12.669Z,935.05
2016-11-19T15:00:23.078Z,935.05
2016-11-19T15:01:33.489Z,935.02
2016-11-19T15:02:58.470Z,935.06
2016-11-19T15:05:33.939Z,934.94
2016-11-19T15:06:44.358Z,934.89
2016-11-19T15:08:09.318Z,934.92
2016-11-19T15:09:34.380Z,935.01
2016-11-19T15:10:44.821Z,935.02
2016-11-19T15:11:55.229Z,934.93